sensor_id;sensor_type;location;lat;lon;timestamp;P1;durP1;ratioP1;P2;durP2;ratioP2
908;SDS011;441;51.192;6.788;2023-03-05T00:01:34;7.60;;;7.20;;
908;SDS011;441;51.192;6.788;2023-03-05T00:04:04;7.40;;;7.20;;
908;SDS011;441;51.192;6.788;2023-03-05T00:06:33;7.47;;;7.27;;
908;SDS011;441;51.192;6.788;2023-03-05T00:09:00;7.30;;;7.00;;
908;SDS011;441;51.192;6.788;2023-03-05T00:11:28;8.00;;;7.70;;
908;SDS011;441;51.192;6.788;2023-03-05T00:13:58;7.37;;;7.17;;
908;SDS011;441;51.192;6.788;2023-03-05T00:16:26;7.13;;;7.03;;
908;SDS011;441;51.192;6.788;2023-03-05T00:18:53;7.40;;;7.20;;
908;SDS011;441;51.192;6.788;2023-03-05T00:21:22;7.60;;;7.40;;
908;SDS011;441;51.192;6.788;2023-03-05T00:23:51;7.03;;;6.93;;
908;SDS011;441;51.192;6.788;2023-03-05T00:26:19;7.87;;;7.47;;
908;SDS011;441;51.192;6.788;2023-03-05T00:28:49;7.20;;;7.00;;
908;SDS011;441;51.192;6.788;2023-03-05T00:31:17;7.70;;;7.40;;
908;SDS011;441;51.192;6.788;2023-03-05T00:33:47;7.43;;;7.13;;
908;SDS011;441;51.192;6.788;2023-03-05T00:36:17;7.33;;;7.13;;
908;SDS011;441;51.192;6.788;2023-03-05T00:38:44;7.40;;;7.20;;
908;SDS011;441;51.192;6.788;2023-03-05T00:41:11;7.83;;;7.63;;
908;SDS011;441;51.192;6.788;2023-03-05T00:43:38;7.20;;;7.00;;
908;SDS011;441;51.192;6.788;2023-03-05T00:46:06;7.20;;;7.00;;
908;SDS011;441;51.192;6.788;2023-03-05T00:48:33;7.00;;;6.77;;
908;SDS011;441;51.192;6.788;2023-03-05T00:51:00;9.13;;;8.83;;
908;SDS011;441;51.192;6.788;2023-03-05T00:53:27;7.20;;;7.00;;
908;SDS011;441;51.192;6.788;2023-03-05T00:55:54;7.60;;;7.30;;
908;SDS011;441;51.192;6.788;2023-03-05T00:58:21;7.93;;;7.50;;
908;SDS011;441;51.192;6.788;2023-03-05T01:00:48;7.57;;;6.97;;
908;SDS011;441;51.192;6.788;2023-03-05T01:03:16;7.50;;;7.40;;
908;SDS011;441;51.192;6.788;2023-03-05T01:05:43;7.40;;;7.23;;
908;SDS011;441;51.192;6.788;2023-03-05T01:08:10;7.80;;;7.60;;
908;SDS011;441;51.192;6.788;2023-03-05T01:10:37;7.73;;;7.53;;
908;SDS011;441;51.192;6.788;2023-03-05T01:13:04;7.93;;;7.63;;
908;SDS011;441;51.192;6.788;2023-03-05T01:15:31;7.70;;;7.50;;
908;SDS011;441;51.192;6.788;2023-03-05T01:17:58;7.00;;;6.80;;
908;SDS011;441;51.192;6.788;2023-03-05T01:20:26;7.63;;;7.23;;
908;SDS011;441;51.192;6.788;2023-03-05T01:22:53;7.77;;;7.57;;
908;SDS011;441;51.192;6.788;2023-03-05T01:25:20;7.50;;;7.30;;
908;SDS011;441;51.192;6.788;2023-03-05T01:27:47;7.50;;;7.30;;
908;SDS011;441;51.192;6.788;2023-03-05T01:30:14;7.30;;;7.20;;
908;SDS011;441;51.192;6.788;2023-03-05T01:32:41;7.30;;;7.00;;
908;SDS011;441;51.192;6.788;2023-03-05T01:35:09;7.23;;;7.00;;
908;SDS011;441;51.192;6.788;2023-03-05T01:37:42;7.10;;;6.97;;
908;SDS011;441;51.192;6.788;2023-03-05T01:40:09;21.63;;;7.23;;
908;SDS011;441;51.192;6.788;2023-03-05T01:42:38;6.87;;;6.77;;
908;SDS011;441;51.192;6.788;2023-03-05T01:45:06;6.90;;;6.70;;
908;SDS011;441;51.192;6.788;2023-03-05T01:47:35;6.93;;;6.83;;
908;SDS011;441;51.192;6.788;2023-03-05T01:50:02;7.53;;;7.33;;
908;SDS011;441;51.192;6.788;2023-03-05T01:52:32;7.70;;;7.50;;
908;SDS011;441;51.192;6.788;2023-03-05T01:55:03;7.60;;;7.40;;
908;SDS011;441;51.192;6.788;2023-03-05T01:57:34;6.90;;;6.80;;
908;SDS011;441;51.192;6.788;2023-03-05T02:00:05;7.30;;;7.10;;
908;SDS011;441;51.192;6.788;2023-03-05T02:02:35;7.90;;;7.70;;
908;SDS011;441;51.192;6.788;2023-03-05T02:05:04;7.70;;;7.50;;
908;SDS011;441;51.192;6.788;2023-03-05T02:07:33;7.10;;;6.90;;
908;SDS011;441;51.192;6.788;2023-03-05T02:10:14;8.10;;;7.60;;
908;SDS011;441;51.192;6.788;2023-03-05T02:12:43;7.53;;;7.13;;
908;SDS011;441;51.192;6.788;2023-03-05T02:15:10;7.40;;;7.20;;
908;SDS011;441;51.192;6.788;2023-03-05T02:17:37;7.20;;;7.00;;
908;SDS011;441;51.192;6.788;2023-03-05T02:20:06;7.07;;;6.87;;
908;SDS011;441;51.192;6.788;2023-03-05T02:22:37;7.60;;;7.40;;
908;SDS011;441;51.192;6.788;2023-03-05T02:25:11;7.13;;;6.93;;
908;SDS011;441;51.192;6.788;2023-03-05T02:27:39;7.90;;;7.50;;
908;SDS011;441;51.192;6.788;2023-03-05T02:30:10;6.90;;;6.80;;
908;SDS011;441;51.192;6.788;2023-03-05T02:32:37;7.87;;;7.67;;
908;SDS011;441;51.192;6.788;2023-03-05T02:35:05;7.23;;;6.93;;
908;SDS011;441;51.192;6.788;2023-03-05T02:37:33;7.23;;;6.90;;
908;SDS011;441;51.192;6.788;2023-03-05T02:40:01;7.40;;;7.20;;
908;SDS011;441;51.192;6.788;2023-03-05T02:42:28;7.40;;;7.30;;
908;SDS011;441;51.192;6.788;2023-03-05T02:44:57;7.50;;;7.30;;
908;SDS011;441;51.192;6.788;2023-03-05T02:47:24;7.53;;;7.33;;
908;SDS011;441;51.192;6.788;2023-03-05T02:49:51;7.77;;;7.53;;
908;SDS011;441;51.192;6.788;2023-03-05T02:52:19;7.20;;;7.10;;
908;SDS011;441;51.192;6.788;2023-03-05T02:54:47;6.97;;;6.77;;
908;SDS011;441;51.192;6.788;2023-03-05T02:57:15;7.17;;;6.97;;
908;SDS011;441;51.192;6.788;2023-03-05T02:59:43;7.47;;;7.27;;
908;SDS011;441;51.192;6.788;2023-03-05T03:02:10;7.07;;;6.87;;
908;SDS011;441;51.192;6.788;2023-03-05T03:04:37;7.60;;;7.40;;
908;SDS011;441;51.192;6.788;2023-03-05T03:07:04;6.83;;;6.67;;
908;SDS011;441;51.192;6.788;2023-03-05T03:09:32;7.00;;;6.90;;
908;SDS011;441;51.192;6.788;2023-03-05T03:12:00;7.10;;;6.90;;
908;SDS011;441;51.192;6.788;2023-03-05T03:14:30;7.67;;;7.40;;
908;SDS011;441;51.192;6.788;2023-03-05T03:17:03;7.50;;;7.20;;
908;SDS011;441;51.192;6.788;2023-03-05T03:19:30;6.77;;;6.67;;
908;SDS011;441;51.192;6.788;2023-03-05T03:21:57;7.20;;;7.10;;
908;SDS011;441;51.192;6.788;2023-03-05T03:24:24;6.90;;;6.60;;
908;SDS011;441;51.192;6.788;2023-03-05T03:26:50;7.00;;;6.90;;
908;SDS011;441;51.192;6.788;2023-03-05T03:29:17;7.03;;;6.93;;
908;SDS011;441;51.192;6.788;2023-03-05T03:31:46;7.13;;;6.93;;
908;SDS011;441;51.192;6.788;2023-03-05T03:34:13;7.10;;;7.00;;
908;SDS011;441;51.192;6.788;2023-03-05T03:36:41;7.33;;;6.83;;
908;SDS011;441;51.192;6.788;2023-03-05T03:39:08;7.30;;;7.10;;
908;SDS011;441;51.192;6.788;2023-03-05T03:41:35;7.40;;;7.20;;
908;SDS011;441;51.192;6.788;2023-03-05T03:44:05;6.60;;;6.50;;
908;SDS011;441;51.192;6.788;2023-03-05T03:46:32;7.03;;;6.87;;
908;SDS011;441;51.192;6.788;2023-03-05T03:49:01;6.60;;;6.50;;
908;SDS011;441;51.192;6.788;2023-03-05T03:51:28;7.53;;;7.33;;
908;SDS011;441;51.192;6.788;2023-03-05T03:53:55;7.17;;;6.87;;
908;SDS011;441;51.192;6.788;2023-03-05T03:56:22;7.23;;;7.03;;
908;SDS011;441;51.192;6.788;2023-03-05T03:58:49;6.30;;;6.20;;
908;SDS011;441;51.192;6.788;2023-03-05T04:01:16;6.97;;;6.73;;
908;SDS011;441;51.192;6.788;2023-03-05T04:03:43;7.37;;;7.17;;
908;SDS011;441;51.192;6.788;2023-03-05T04:06:12;6.93;;;6.83;;
908;SDS011;441;51.192;6.788;2023-03-05T04:08:39;6.80;;;6.70;;
908;SDS011;441;51.192;6.788;2023-03-05T04:11:06;7.10;;;6.90;;
908;SDS011;441;51.192;6.788;2023-03-05T04:13:33;6.80;;;6.67;;
908;SDS011;441;51.192;6.788;2023-03-05T04:16:00;6.70;;;6.60;;
908;SDS011;441;51.192;6.788;2023-03-05T04:18:27;6.23;;;6.13;;
908;SDS011;441;51.192;6.788;2023-03-05T04:20:54;6.90;;;6.70;;
908;SDS011;441;51.192;6.788;2023-03-05T04:23:22;7.50;;;7.10;;
908;SDS011;441;51.192;6.788;2023-03-05T04:25:49;6.10;;;6.00;;
908;SDS011;441;51.192;6.788;2023-03-05T04:28:16;6.80;;;6.50;;
908;SDS011;441;51.192;6.788;2023-03-05T04:30:43;6.40;;;6.30;;
908;SDS011;441;51.192;6.788;2023-03-05T04:33:10;7.50;;;7.20;;
908;SDS011;441;51.192;6.788;2023-03-05T04:35:37;7.77;;;7.40;;
908;SDS011;441;51.192;6.788;2023-03-05T04:38:04;6.60;;;6.30;;
908;SDS011;441;51.192;6.788;2023-03-05T04:40:32;7.20;;;7.00;;
908;SDS011;441;51.192;6.788;2023-03-05T04:42:59;6.50;;;6.40;;
908;SDS011;441;51.192;6.788;2023-03-05T04:45:26;7.23;;;7.07;;
908;SDS011;441;51.192;6.788;2023-03-05T04:47:53;6.93;;;6.63;;
908;SDS011;441;51.192;6.788;2023-03-05T04:50:20;7.20;;;6.77;;
908;SDS011;441;51.192;6.788;2023-03-05T04:52:47;6.90;;;6.50;;
908;SDS011;441;51.192;6.788;2023-03-05T04:55:14;7.70;;;7.47;;
908;SDS011;441;51.192;6.788;2023-03-05T04:57:43;6.17;;;6.07;;
908;SDS011;441;51.192;6.788;2023-03-05T05:00:11;7.70;;;7.40;;
908;SDS011;441;51.192;6.788;2023-03-05T05:02:41;6.77;;;6.57;;
908;SDS011;441;51.192;6.788;2023-03-05T05:05:08;6.47;;;6.27;;
908;SDS011;441;51.192;6.788;2023-03-05T05:07:37;6.97;;;6.60;;
908;SDS011;441;51.192;6.788;2023-03-05T05:10:04;6.70;;;6.50;;
908;SDS011;441;51.192;6.788;2023-03-05T05:12:32;7.03;;;6.93;;
908;SDS011;441;51.192;6.788;2023-03-05T05:15:00;6.80;;;6.60;;
908;SDS011;441;51.192;6.788;2023-03-05T05:17:28;6.50;;;6.30;;
908;SDS011;441;51.192;6.788;2023-03-05T05:19:57;6.03;;;5.93;;
908;SDS011;441;51.192;6.788;2023-03-05T05:22:24;6.20;;;6.10;;
908;SDS011;441;51.192;6.788;2023-03-05T05:24:52;6.50;;;6.20;;
908;SDS011;441;51.192;6.788;2023-03-05T05:27:19;6.20;;;6.10;;
908;SDS011;441;51.192;6.788;2023-03-05T05:29:46;6.60;;;6.40;;
908;SDS011;441;51.192;6.788;2023-03-05T05:32:18;6.53;;;6.43;;
908;SDS011;441;51.192;6.788;2023-03-05T05:34:47;6.40;;;6.20;;
908;SDS011;441;51.192;6.788;2023-03-05T05:37:14;6.10;;;6.00;;
908;SDS011;441;51.192;6.788;2023-03-05T05:39:41;6.00;;;5.90;;
908;SDS011;441;51.192;6.788;2023-03-05T05:42:14;6.27;;;6.03;;
908;SDS011;441;51.192;6.788;2023-03-05T05:44:41;6.47;;;6.37;;
908;SDS011;441;51.192;6.788;2023-03-05T05:47:08;6.87;;;6.63;;
908;SDS011;441;51.192;6.788;2023-03-05T05:49:36;6.70;;;6.50;;
908;SDS011;441;51.192;6.788;2023-03-05T05:52:03;6.03;;;5.83;;
908;SDS011;441;51.192;6.788;2023-03-05T05:54:30;6.80;;;6.60;;
908;SDS011;441;51.192;6.788;2023-03-05T05:56:58;6.37;;;6.27;;
908;SDS011;441;51.192;6.788;2023-03-05T05:59:24;6.70;;;6.50;;
908;SDS011;441;51.192;6.788;2023-03-05T06:01:51;6.30;;;6.20;;
908;SDS011;441;51.192;6.788;2023-03-05T06:04:18;6.20;;;6.10;;
908;SDS011;441;51.192;6.788;2023-03-05T06:06:46;6.70;;;6.40;;
908;SDS011;441;51.192;6.788;2023-03-05T06:09:13;7.23;;;7.03;;
908;SDS011;441;51.192;6.788;2023-03-05T06:11:40;6.57;;;6.37;;
908;SDS011;441;51.192;6.788;2023-03-05T06:14:08;6.30;;;6.20;;
908;SDS011;441;51.192;6.788;2023-03-05T06:16:36;7.13;;;6.93;;
908;SDS011;441;51.192;6.788;2023-03-05T06:19:03;15.23;;;7.10;;
908;SDS011;441;51.192;6.788;2023-03-05T06:21:30;7.77;;;7.30;;
908;SDS011;441;51.192;6.788;2023-03-05T06:23:59;6.87;;;6.70;;
908;SDS011;441;51.192;6.788;2023-03-05T06:26:26;7.57;;;7.37;;
908;SDS011;441;51.192;6.788;2023-03-05T06:28:53;6.57;;;6.40;;
908;SDS011;441;51.192;6.788;2023-03-05T06:31:20;7.27;;;6.93;;
908;SDS011;441;51.192;6.788;2023-03-05T06:33:49;6.97;;;5.45;;
908;SDS011;441;51.192;6.788;2023-03-05T06:36:17;8.43;;;7.70;;
908;SDS011;441;51.192;6.788;2023-03-05T06:38:45;9.80;;;8.97;;
908;SDS011;441;51.192;6.788;2023-03-05T06:41:15;10.30;;;9.30;;
908;SDS011;441;51.192;6.788;2023-03-05T06:43:50;10.50;;;9.60;;
908;SDS011;441;51.192;6.788;2023-03-05T06:46:18;10.90;;;9.90;;
908;SDS011;441;51.192;6.788;2023-03-05T06:48:49;16.27;;;10.60;;
908;SDS011;441;51.192;6.788;2023-03-05T06:51:17;12.77;;;10.83;;
908;SDS011;441;51.192;6.788;2023-03-05T06:53:46;10.80;;;9.80;;
908;SDS011;441;51.192;6.788;2023-03-05T06:56:14;11.83;;;10.40;;
908;SDS011;441;51.192;6.788;2023-03-05T06:58:42;13.00;;;11.00;;
908;SDS011;441;51.192;6.788;2023-03-05T07:01:09;13.40;;;11.33;;
908;SDS011;441;51.192;6.788;2023-03-05T07:03:36;29.87;;;11.90;;
908;SDS011;441;51.192;6.788;2023-03-05T07:06:05;12.40;;;11.40;;
908;SDS011;441;51.192;6.788;2023-03-05T07:08:33;10.77;;;9.17;;
908;SDS011;441;51.192;6.788;2023-03-05T07:11:00;15.50;;;11.07;;
908;SDS011;441;51.192;6.788;2023-03-05T07:13:28;13.38;;;10.20;;
908;SDS011;441;51.192;6.788;2023-03-05T07:15:55;16.03;;;10.47;;
908;SDS011;441;51.192;6.788;2023-03-05T07:18:22;11.37;;;10.27;;
908;SDS011;441;51.192;6.788;2023-03-05T07:20:49;11.70;;;10.50;;
908;SDS011;441;51.192;6.788;2023-03-05T07:23:16;12.30;;;10.83;;
908;SDS011;441;51.192;6.788;2023-03-05T07:25:43;16.87;;;10.93;;
908;SDS011;441;51.192;6.788;2023-03-05T07:28:10;12.73;;;11.70;;
908;SDS011;441;51.192;6.788;2023-03-05T07:30:38;11.33;;;10.37;;
908;SDS011;441;51.192;6.788;2023-03-05T07:33:05;12.27;;;11.17;;
908;SDS011;441;51.192;6.788;2023-03-05T07:35:32;10.57;;;9.90;;
908;SDS011;441;51.192;6.788;2023-03-05T07:37:59;16.50;;;9.48;;
908;SDS011;441;51.192;6.788;2023-03-05T07:40:26;10.75;;;9.73;;
908;SDS011;441;51.192;6.788;2023-03-05T07:42:53;17.20;;;16.00;;
908;SDS011;441;51.192;6.788;2023-03-05T07:45:20;20.83;;;19.10;;
908;SDS011;441;51.192;6.788;2023-03-05T07:47:48;19.23;;;17.90;;
908;SDS011;441;51.192;6.788;2023-03-05T07:50:15;17.67;;;16.70;;
908;SDS011;441;51.192;6.788;2023-03-05T07:52:42;18.30;;;17.10;;
908;SDS011;441;51.192;6.788;2023-03-05T07:55:09;17.87;;;16.87;;
908;SDS011;441;51.192;6.788;2023-03-05T07:57:36;18.80;;;17.52;;
908;SDS011;441;51.192;6.788;2023-03-05T08:00:04;17.53;;;16.63;;
908;SDS011;441;51.192;6.788;2023-03-05T08:02:32;16.97;;;15.97;;
908;SDS011;441;51.192;6.788;2023-03-05T08:05:00;18.45;;;16.88;;
908;SDS011;441;51.192;6.788;2023-03-05T08:07:28;17.10;;;16.20;;
908;SDS011;441;51.192;6.788;2023-03-05T08:09:54;18.23;;;17.20;;
908;SDS011;441;51.192;6.788;2023-03-05T08:12:21;18.20;;;16.97;;
908;SDS011;441;51.192;6.788;2023-03-05T08:14:48;17.07;;;16.20;;
908;SDS011;441;51.192;6.788;2023-03-05T08:17:16;17.43;;;16.53;;
908;SDS011;441;51.192;6.788;2023-03-05T08:19:42;17.30;;;16.13;;
908;SDS011;441;51.192;6.788;2023-03-05T08:22:11;17.63;;;16.63;;
908;SDS011;441;51.192;6.788;2023-03-05T08:24:40;17.77;;;16.87;;
908;SDS011;441;51.192;6.788;2023-03-05T08:27:07;17.63;;;16.40;;
908;SDS011;441;51.192;6.788;2023-03-05T08:29:34;17.00;;;16.30;;
908;SDS011;441;51.192;6.788;2023-03-05T08:32:00;17.83;;;17.10;;
908;SDS011;441;51.192;6.788;2023-03-05T08:34:27;17.33;;;16.53;;
908;SDS011;441;51.192;6.788;2023-03-05T08:36:54;17.93;;;16.93;;
908;SDS011;441;51.192;6.788;2023-03-05T08:39:22;17.27;;;16.48;;
908;SDS011;441;51.192;6.788;2023-03-05T08:41:49;18.20;;;17.20;;
908;SDS011;441;51.192;6.788;2023-03-05T08:44:16;17.27;;;16.57;;
908;SDS011;441;51.192;6.788;2023-03-05T08:46:43;18.03;;;17.00;;
908;SDS011;441;51.192;6.788;2023-03-05T08:49:10;16.90;;;16.20;;
908;SDS011;441;51.192;6.788;2023-03-05T08:51:37;17.00;;;16.10;;
908;SDS011;441;51.192;6.788;2023-03-05T08:54:04;18.90;;;17.40;;
908;SDS011;441;51.192;6.788;2023-03-05T08:56:34;18.90;;;17.83;;
908;SDS011;441;51.192;6.788;2023-03-05T08:59:01;17.53;;;16.70;;
908;SDS011;441;51.192;6.788;2023-03-05T09:01:29;17.20;;;16.40;;
908;SDS011;441;51.192;6.788;2023-03-05T09:03:56;16.30;;;15.80;;
908;SDS011;441;51.192;6.788;2023-03-05T09:06:24;17.37;;;16.47;;
908;SDS011;441;51.192;6.788;2023-03-05T09:08:52;16.07;;;15.57;;
908;SDS011;441;51.192;6.788;2023-03-05T09:11:19;17.10;;;16.40;;
908;SDS011;441;51.192;6.788;2023-03-05T09:13:47;18.20;;;17.30;;
908;SDS011;441;51.192;6.788;2023-03-05T09:16:15;16.67;;;15.87;;
908;SDS011;441;51.192;6.788;2023-03-05T09:18:44;16.40;;;15.70;;
908;SDS011;441;51.192;6.788;2023-03-05T09:21:12;17.10;;;16.20;;
908;SDS011;441;51.192;6.788;2023-03-05T09:23:40;16.70;;;15.90;;
908;SDS011;441;51.192;6.788;2023-03-05T09:26:08;17.03;;;16.33;;
908;SDS011;441;51.192;6.788;2023-03-05T09:28:37;16.40;;;15.80;;
908;SDS011;441;51.192;6.788;2023-03-05T09:31:06;15.47;;;14.97;;
908;SDS011;441;51.192;6.788;2023-03-05T09:33:33;17.17;;;16.40;;
908;SDS011;441;51.192;6.788;2023-03-05T09:36:01;16.90;;;16.07;;
908;SDS011;441;51.192;6.788;2023-03-05T09:38:28;17.43;;;16.67;;
908;SDS011;441;51.192;6.788;2023-03-05T09:40:57;17.53;;;15.97;;
908;SDS011;441;51.192;6.788;2023-03-05T09:43:33;17.67;;;16.97;;
908;SDS011;441;51.192;6.788;2023-03-05T09:46:14;17.30;;;16.40;;
908;SDS011;441;51.192;6.788;2023-03-05T09:48:50;16.60;;;16.10;;
908;SDS011;441;51.192;6.788;2023-03-05T09:51:22;17.90;;;17.20;;
908;SDS011;441;51.192;6.788;2023-03-05T09:53:53;16.93;;;16.43;;
908;SDS011;441;51.192;6.788;2023-03-05T09:56:27;16.47;;;15.87;;
908;SDS011;441;51.192;6.788;2023-03-05T09:58:57;17.10;;;16.50;;
908;SDS011;441;51.192;6.788;2023-03-05T10:01:33;9.53;;;9.10;;
908;SDS011;441;51.192;6.788;2023-03-05T10:04:05;8.43;;;8.23;;
908;SDS011;441;51.192;6.788;2023-03-05T10:06:39;9.43;;;8.83;;
908;SDS011;441;51.192;6.788;2023-03-05T10:09:15;9.50;;;9.00;;
908;SDS011;441;51.192;6.788;2023-03-05T10:11:48;8.80;;;8.50;;
908;SDS011;441;51.192;6.788;2023-03-05T10:14:22;9.40;;;8.67;;
908;SDS011;441;51.192;6.788;2023-03-05T10:16:56;8.83;;;8.40;;
908;SDS011;441;51.192;6.788;2023-03-05T10:20:03;8.83;;;8.53;;
908;SDS011;441;51.192;6.788;2023-03-05T10:22:41;8.80;;;7.93;;
908;SDS011;441;51.192;6.788;2023-03-05T10:25:23;9.20;;;8.60;;
908;SDS011;441;51.192;6.788;2023-03-05T10:27:57;9.47;;;8.50;;
908;SDS011;441;51.192;6.788;2023-03-05T10:30:37;11.97;;;10.97;;
908;SDS011;441;51.192;6.788;2023-03-05T10:33:21;10.60;;;9.70;;
908;SDS011;441;51.192;6.788;2023-03-05T10:36:01;11.70;;;10.60;;
908;SDS011;441;51.192;6.788;2023-03-05T10:38:52;13.33;;;10.13;;
908;SDS011;441;51.192;6.788;2023-03-05T10:41:36;11.83;;;10.90;;
908;SDS011;441;51.192;6.788;2023-03-05T10:44:08;13.20;;;11.77;;
908;SDS011;441;51.192;6.788;2023-03-05T10:46:41;11.57;;;10.60;;
908;SDS011;441;51.192;6.788;2023-03-05T10:49:16;11.73;;;11.13;;
908;SDS011;441;51.192;6.788;2023-03-05T10:51:47;11.07;;;10.23;;
908;SDS011;441;51.192;6.788;2023-03-05T10:54:18;12.37;;;11.47;;
908;SDS011;441;51.192;6.788;2023-03-05T10:57:01;12.20;;;11.45;;
908;SDS011;441;51.192;6.788;2023-03-05T10:59:28;12.27;;;10.97;;
908;SDS011;441;51.192;6.788;2023-03-05T11:02:00;11.87;;;11.13;;
908;SDS011;441;51.192;6.788;2023-03-05T11:04:32;14.47;;;11.90;;
908;SDS011;441;51.192;6.788;2023-03-05T11:07:04;13.47;;;12.27;;
908;SDS011;441;51.192;6.788;2023-03-05T11:09:33;12.03;;;11.23;;
908;SDS011;441;51.192;6.788;2023-03-05T11:14:46;11.20;;;10.43;;
908;SDS011;441;51.192;6.788;2023-03-05T11:17:32;11.40;;;10.53;;
908;SDS011;441;51.192;6.788;2023-03-05T11:20:22;12.37;;;11.07;;
908;SDS011;441;51.192;6.788;2023-03-05T11:23:03;10.70;;;10.00;;
908;SDS011;441;51.192;6.788;2023-03-05T11:25:32;15.47;;;11.90;;
908;SDS011;441;51.192;6.788;2023-03-05T11:28:00;11.63;;;11.07;;
908;SDS011;441;51.192;6.788;2023-03-05T11:30:29;11.23;;;10.37;;
908;SDS011;441;51.192;6.788;2023-03-05T11:33:08;11.00;;;10.60;;
908;SDS011;441;51.192;6.788;2023-03-05T11:35:42;10.80;;;10.20;;
908;SDS011;441;51.192;6.788;2023-03-05T11:38:14;11.03;;;10.50;;
908;SDS011;441;51.192;6.788;2023-03-05T11:40:42;10.80;;;10.13;;
908;SDS011;441;51.192;6.788;2023-03-05T11:43:12;9.70;;;9.20;;
908;SDS011;441;51.192;6.788;2023-03-05T11:45:40;10.03;;;9.40;;
908;SDS011;441;51.192;6.788;2023-03-05T11:48:11;10.30;;;9.70;;
908;SDS011;441;51.192;6.788;2023-03-05T11:50:44;10.10;;;9.43;;
908;SDS011;441;51.192;6.788;2023-03-05T11:53:17;10.57;;;9.60;;
908;SDS011;441;51.192;6.788;2023-03-05T11:55:48;9.83;;;9.33;;
908;SDS011;441;51.192;6.788;2023-03-05T11:58:21;10.17;;;9.33;;
908;SDS011;441;51.192;6.788;2023-03-05T12:00:53;9.70;;;9.20;;
908;SDS011;441;51.192;6.788;2023-03-05T12:03:20;12.23;;;11.07;;
908;SDS011;441;51.192;6.788;2023-03-05T12:05:53;10.20;;;9.37;;
908;SDS011;441;51.192;6.788;2023-03-05T12:08:24;10.10;;;9.70;;
908;SDS011;441;51.192;6.788;2023-03-05T12:10:54;10.20;;;9.60;;
908;SDS011;441;51.192;6.788;2023-03-05T12:13:25;10.10;;;9.70;;
908;SDS011;441;51.192;6.788;2023-03-05T12:16:02;9.80;;;9.23;;
908;SDS011;441;51.192;6.788;2023-03-05T12:18:39;10.50;;;9.80;;
908;SDS011;441;51.192;6.788;2023-03-05T12:21:26;10.47;;;9.90;;
908;SDS011;441;51.192;6.788;2023-03-05T12:23:59;9.37;;;9.17;;
908;SDS011;441;51.192;6.788;2023-03-05T12:29:27;9.90;;;9.20;;
908;SDS011;441;51.192;6.788;2023-03-05T12:31:56;9.30;;;8.90;;
908;SDS011;441;51.192;6.788;2023-03-05T12:34:40;8.15;;;7.55;;
908;SDS011;441;51.192;6.788;2023-03-05T12:40:22;11.67;;;11.13;;
908;SDS011;441;51.192;6.788;2023-03-05T12:42:51;8.00;;;7.60;;
908;SDS011;441;51.192;6.788;2023-03-05T12:51:11;9.07;;;8.87;;
908;SDS011;441;51.192;6.788;2023-03-05T12:53:39;9.97;;;9.60;;
908;SDS011;441;51.192;6.788;2023-03-05T12:56:12;8.93;;;8.73;;
908;SDS011;441;51.192;6.788;2023-03-05T12:58:46;9.33;;;9.03;;
908;SDS011;441;51.192;6.788;2023-03-05T13:04:00;9.30;;;9.10;;
908;SDS011;441;51.192;6.788;2023-03-05T13:06:35;10.70;;;10.30;;
908;SDS011;441;51.192;6.788;2023-03-05T13:09:03;9.60;;;9.20;;
908;SDS011;441;51.192;6.788;2023-03-05T13:11:35;8.97;;;8.67;;
908;SDS011;441;51.192;6.788;2023-03-05T13:14:04;9.90;;;9.30;;
908;SDS011;441;51.192;6.788;2023-03-05T13:16:53;8.80;;;8.60;;
908;SDS011;441;51.192;6.788;2023-03-05T13:19:20;9.57;;;9.17;;
908;SDS011;441;51.192;6.788;2023-03-05T13:21:55;8.60;;;8.40;;
908;SDS011;441;51.192;6.788;2023-03-05T13:24:23;8.50;;;8.10;;
908;SDS011;441;51.192;6.788;2023-03-05T13:26:51;8.40;;;8.20;;
908;SDS011;441;51.192;6.788;2023-03-05T13:29:18;8.73;;;8.47;;
908;SDS011;441;51.192;6.788;2023-03-05T13:31:47;8.93;;;8.73;;
908;SDS011;441;51.192;6.788;2023-03-05T13:34:17;8.50;;;8.30;;
908;SDS011;441;51.192;6.788;2023-03-05T13:36:49;9.53;;;8.70;;
908;SDS011;441;51.192;6.788;2023-03-05T13:39:23;8.60;;;8.30;;
908;SDS011;441;51.192;6.788;2023-03-05T13:41:58;8.43;;;8.23;;
908;SDS011;441;51.192;6.788;2023-03-05T13:44:26;8.60;;;8.40;;
908;SDS011;441;51.192;6.788;2023-03-05T13:47:05;8.03;;;7.83;;
908;SDS011;441;51.192;6.788;2023-03-05T13:49:33;7.70;;;7.43;;
908;SDS011;441;51.192;6.788;2023-03-05T13:52:00;8.40;;;8.10;;
908;SDS011;441;51.192;6.788;2023-03-05T13:54:28;9.23;;;9.00;;
908;SDS011;441;51.192;6.788;2023-03-05T13:56:56;8.70;;;8.50;;
908;SDS011;441;51.192;6.788;2023-03-05T13:59:26;8.60;;;8.40;;
908;SDS011;441;51.192;6.788;2023-03-05T14:01:55;8.80;;;8.60;;
908;SDS011;441;51.192;6.788;2023-03-05T14:04:23;8.37;;;8.17;;
908;SDS011;441;51.192;6.788;2023-03-05T14:06:52;8.60;;;8.40;;
908;SDS011;441;51.192;6.788;2023-03-05T14:09:23;8.80;;;8.50;;
908;SDS011;441;51.192;6.788;2023-03-05T14:11:52;8.90;;;8.60;;
908;SDS011;441;51.192;6.788;2023-03-05T14:14:26;8.93;;;8.73;;
908;SDS011;441;51.192;6.788;2023-03-05T14:16:54;8.50;;;8.30;;
908;SDS011;441;51.192;6.788;2023-03-05T14:19:42;9.30;;;8.80;;
908;SDS011;441;51.192;6.788;2023-03-05T14:22:26;8.93;;;8.53;;
908;SDS011;441;51.192;6.788;2023-03-05T14:24:55;8.57;;;8.17;;
908;SDS011;441;51.192;6.788;2023-03-05T14:27:22;8.97;;;8.77;;
908;SDS011;441;51.192;6.788;2023-03-05T14:29:49;8.13;;;7.93;;
908;SDS011;441;51.192;6.788;2023-03-05T14:32:18;7.77;;;7.57;;
908;SDS011;441;51.192;6.788;2023-03-05T14:34:53;8.33;;;8.20;;
908;SDS011;441;51.192;6.788;2023-03-05T14:37:22;8.77;;;8.57;;
908;SDS011;441;51.192;6.788;2023-03-05T14:39:52;8.93;;;8.73;;
908;SDS011;441;51.192;6.788;2023-03-05T14:42:28;8.73;;;8.53;;
908;SDS011;441;51.192;6.788;2023-03-05T14:44:57;8.60;;;8.40;;
908;SDS011;441;51.192;6.788;2023-03-05T14:47:26;8.90;;;8.70;;
908;SDS011;441;51.192;6.788;2023-03-05T14:49:56;8.50;;;8.30;;
908;SDS011;441;51.192;6.788;2023-03-05T14:52:23;7.63;;;7.43;;
908;SDS011;441;51.192;6.788;2023-03-05T14:54:51;7.67;;;7.57;;
908;SDS011;441;51.192;6.788;2023-03-05T14:57:21;7.73;;;7.40;;
908;SDS011;441;51.192;6.788;2023-03-05T14:59:50;7.70;;;7.50;;
908;SDS011;441;51.192;6.788;2023-03-05T15:02:18;7.90;;;7.70;;
908;SDS011;441;51.192;6.788;2023-03-05T15:04:46;7.87;;;7.67;;
908;SDS011;441;51.192;6.788;2023-03-05T15:07:16;7.47;;;7.30;;
908;SDS011;441;51.192;6.788;2023-03-05T15:09:45;8.30;;;7.80;;
908;SDS011;441;51.192;6.788;2023-03-05T15:12:12;7.50;;;7.30;;
908;SDS011;441;51.192;6.788;2023-03-05T15:14:41;8.07;;;7.87;;
908;SDS011;441;51.192;6.788;2023-03-05T15:17:18;7.60;;;7.30;;
908;SDS011;441;51.192;6.788;2023-03-05T15:19:46;7.13;;;7.03;;
908;SDS011;441;51.192;6.788;2023-03-05T15:22:15;8.00;;;7.53;;
908;SDS011;441;51.192;6.788;2023-03-05T15:24:42;7.50;;;7.40;;
908;SDS011;441;51.192;6.788;2023-03-05T15:27:10;7.93;;;7.73;;
908;SDS011;441;51.192;6.788;2023-03-05T15:29:38;7.50;;;7.30;;
908;SDS011;441;51.192;6.788;2023-03-05T15:32:05;7.10;;;6.90;;
908;SDS011;441;51.192;6.788;2023-03-05T15:34:32;7.67;;;7.40;;
908;SDS011;441;51.192;6.788;2023-03-05T15:37:00;7.40;;;7.20;;
908;SDS011;441;51.192;6.788;2023-03-05T15:39:29;7.03;;;6.90;;
908;SDS011;441;51.192;6.788;2023-03-05T15:41:55;7.27;;;7.10;;
908;SDS011;441;51.192;6.788;2023-03-05T15:44:23;7.57;;;7.30;;
908;SDS011;441;51.192;6.788;2023-03-05T15:46:50;7.90;;;7.43;;
908;SDS011;441;51.192;6.788;2023-03-05T15:49:18;7.57;;;7.47;;
908;SDS011;441;51.192;6.788;2023-03-05T15:51:45;7.63;;;7.43;;
908;SDS011;441;51.192;6.788;2023-03-05T15:54:12;7.57;;;7.37;;
908;SDS011;441;51.192;6.788;2023-03-05T15:56:40;7.67;;;7.37;;
908;SDS011;441;51.192;6.788;2023-03-05T15:59:07;7.60;;;7.30;;
908;SDS011;441;51.192;6.788;2023-03-05T16:01:35;7.90;;;7.60;;
908;SDS011;441;51.192;6.788;2023-03-05T16:04:02;7.70;;;7.47;;
908;SDS011;441;51.192;6.788;2023-03-05T16:06:30;7.50;;;7.30;;
908;SDS011;441;51.192;6.788;2023-03-05T16:08:59;7.00;;;6.90;;